sensor_id;sensor_type;location;lat;lon;timestamp;P1;durP1;ratioP1;P2;durP2;ratioP2
49502;SDS011;35409;48.776;9.204;2024-02-23T00:01:34;1.27;;;0.13;;
49502;SDS011;35409;48.776;9.204;2024-02-23T00:04:00;0.70;;;0.30;;
49502;SDS011;35409;48.776;9.204;2024-02-23T00:06:27;1.13;;;0.20;;
49502;SDS011;35409;48.776;9.204;2024-02-23T00:08:53;0.52;;;0.22;;
49502;SDS011;35409;48.776;9.204;2024-02-23T00:11:20;2.08;;;0.28;;
49502;SDS011;35409;48.776;9.204;2024-02-23T00:13:46;0.13;;;0.13;;
49502;SDS011;35409;48.776;9.204;2024-02-23T00:16:12;1.55;;;0.10;;
49502;SDS011;35409;48.776;9.204;2024-02-23T00:18:38;0.40;;;0.10;;
49502;SDS011;35409;48.776;9.204;2024-02-23T00:21:03;0.32;;;0.10;;
49502;SDS011;35409;48.776;9.204;2024-02-23T00:23:29;2.28;;;0.20;;
49502;SDS011;35409;48.776;9.204;2024-02-23T00:25:55;0.60;;;0.10;;
49502;SDS011;35409;48.776;9.204;2024-02-23T00:28:20;1.90;;;0.10;;
49502;SDS011;35409;48.776;9.204;2024-02-23T00:30:46;1.85;;;0.20;;
49502;SDS011;35409;48.776;9.204;2024-02-23T00:33:12;3.15;;;0.20;;
49502;SDS011;35409;48.776;9.204;2024-02-23T00:35:38;0.82;;;0.10;;
49502;SDS011;35409;48.776;9.204;2024-02-23T00:38:04;2.58;;;0.32;;
49502;SDS011;35409;48.776;9.204;2024-02-23T00:40:29;1.27;;;0.20;;
49502;SDS011;35409;48.776;9.204;2024-02-23T00:42:55;0.10;;;0.00;;
49502;SDS011;35409;48.776;9.204;2024-02-23T00:45:21;4.30;;;0.25;;
49502;SDS011;35409;48.776;9.204;2024-02-23T00:47:47;3.50;;;0.40;;
49502;SDS011;35409;48.776;9.204;2024-02-23T00:50:13;0.17;;;0.00;;
49502;SDS011;35409;48.776;9.204;2024-02-23T00:52:39;2.65;;;0.25;;
49502;SDS011;35409;48.776;9.204;2024-02-23T00:55:06;3.53;;;0.22;;
49502;SDS011;35409;48.776;9.204;2024-02-23T00:57:33;1.85;;;0.20;;
49502;SDS011;35409;48.776;9.204;2024-02-23T00:59:59;1.15;;;0.22;;
49502;SDS011;35409;48.776;9.204;2024-02-23T01:02:24;2.08;;;0.20;;
49502;SDS011;35409;48.776;9.204;2024-02-23T01:04:50;2.67;;;0.20;;
49502;SDS011;35409;48.776;9.204;2024-02-23T01:07:21;0.80;;;0.28;;
49502;SDS011;35409;48.776;9.204;2024-02-23T01:09:47;1.70;;;0.20;;
49502;SDS011;35409;48.776;9.204;2024-02-23T01:12:13;0.70;;;0.20;;
49502;SDS011;35409;48.776;9.204;2024-02-23T01:14:38;1.25;;;0.15;;
49502;SDS011;35409;48.776;9.204;2024-02-23T01:17:04;1.17;;;0.30;;
49502;SDS011;35409;48.776;9.204;2024-02-23T01:19:29;2.33;;;0.28;;
49502;SDS011;35409;48.776;9.204;2024-02-23T01:21:55;5.78;;;0.40;;
49502;SDS011;35409;48.776;9.204;2024-02-23T01:24:25;3.67;;;0.40;;
49502;SDS011;35409;48.776;9.204;2024-02-23T01:26:54;2.88;;;0.50;;
49502;SDS011;35409;48.776;9.204;2024-02-23T01:29:21;2.47;;;0.60;;
49502;SDS011;35409;48.776;9.204;2024-02-23T01:31:50;2.83;;;0.32;;
49502;SDS011;35409;48.776;9.204;2024-02-23T01:34:16;1.25;;;0.40;;
49502;SDS011;35409;48.776;9.204;2024-02-23T01:36:42;2.28;;;0.50;;
49502;SDS011;35409;48.776;9.204;2024-02-23T01:39:07;3.35;;;0.43;;
49502;SDS011;35409;48.776;9.204;2024-02-23T01:41:33;1.92;;;0.32;;
49502;SDS011;35409;48.776;9.204;2024-02-23T01:43:58;3.25;;;0.30;;
49502;SDS011;35409;48.776;9.204;2024-02-23T01:46:24;3.45;;;0.30;;
49502;SDS011;35409;48.776;9.204;2024-02-23T01:48:50;2.20;;;0.75;;
49502;SDS011;35409;48.776;9.204;2024-02-23T01:51:15;3.05;;;0.65;;
49502;SDS011;35409;48.776;9.204;2024-02-23T01:53:41;2.00;;;0.47;;
49502;SDS011;35409;48.776;9.204;2024-02-23T01:56:07;4.57;;;0.32;;
49502;SDS011;35409;48.776;9.204;2024-02-23T01:58:35;2.25;;;0.30;;
49502;SDS011;35409;48.776;9.204;2024-02-23T02:01:02;2.88;;;0.40;;
49502;SDS011;35409;48.776;9.204;2024-02-23T02:03:27;2.70;;;0.38;;
49502;SDS011;35409;48.776;9.204;2024-02-23T02:05:53;9.13;;;0.85;;
49502;SDS011;35409;48.776;9.204;2024-02-23T02:08:23;2.03;;;0.30;;
49502;SDS011;35409;48.776;9.204;2024-02-23T02:10:50;4.38;;;0.50;;
49502;SDS011;35409;48.776;9.204;2024-02-23T02:13:15;3.85;;;1.08;;
49502;SDS011;35409;48.776;9.204;2024-02-23T02:15:41;0.85;;;0.50;;
49502;SDS011;35409;48.776;9.204;2024-02-23T02:18:08;2.15;;;0.30;;
49502;SDS011;35409;48.776;9.204;2024-02-23T02:20:34;2.75;;;0.40;;
49502;SDS011;35409;48.776;9.204;2024-02-23T02:23:01;2.28;;;0.40;;
49502;SDS011;35409;48.776;9.204;2024-02-23T02:25:27;4.38;;;0.57;;
49502;SDS011;35409;48.776;9.204;2024-02-23T02:27:53;1.73;;;0.38;;
49502;SDS011;35409;48.776;9.204;2024-02-23T02:30:19;3.22;;;0.45;;
49502;SDS011;35409;48.776;9.204;2024-02-23T02:32:44;7.72;;;0.50;;
49502;SDS011;35409;48.776;9.204;2024-02-23T02:35:11;3.67;;;0.55;;
49502;SDS011;35409;48.776;9.204;2024-02-23T02:37:39;1.50;;;0.30;;
49502;SDS011;35409;48.776;9.204;2024-02-23T02:40:05;2.50;;;0.32;;
49502;SDS011;35409;48.776;9.204;2024-02-23T02:42:31;2.88;;;0.38;;
49502;SDS011;35409;48.776;9.204;2024-02-23T02:44:57;4.10;;;0.25;;
49502;SDS011;35409;48.776;9.204;2024-02-23T02:47:23;1.90;;;0.47;;
49502;SDS011;35409;48.776;9.204;2024-02-23T02:49:49;1.05;;;0.30;;
49502;SDS011;35409;48.776;9.204;2024-02-23T02:52:16;2.90;;;0.30;;
49502;SDS011;35409;48.776;9.204;2024-02-23T02:54:41;4.25;;;0.30;;
49502;SDS011;35409;48.776;9.204;2024-02-23T02:57:07;4.80;;;0.80;;
49502;SDS011;35409;48.776;9.204;2024-02-23T02:59:35;4.10;;;0.30;;
49502;SDS011;35409;48.776;9.204;2024-02-23T03:02:01;0.85;;;0.20;;
49502;SDS011;35409;48.776;9.204;2024-02-23T03:04:27;0.90;;;0.30;;
49502;SDS011;35409;48.776;9.204;2024-02-23T03:06:52;2.38;;;0.52;;
49502;SDS011;35409;48.776;9.204;2024-02-23T03:09:18;2.50;;;0.43;;
49502;SDS011;35409;48.776;9.204;2024-02-23T03:11:44;1.85;;;0.30;;
49502;SDS011;35409;48.776;9.204;2024-02-23T03:14:10;0.60;;;0.28;;
49502;SDS011;35409;48.776;9.204;2024-02-23T03:16:36;2.47;;;0.20;;
49502;SDS011;35409;48.776;9.204;2024-02-23T03:19:02;3.00;;;0.45;;
49502;SDS011;35409;48.776;9.204;2024-02-23T03:21:28;2.13;;;0.32;;
49502;SDS011;35409;48.776;9.204;2024-02-23T03:23:54;3.13;;;0.40;;
49502;SDS011;35409;48.776;9.204;2024-02-23T03:26:20;1.25;;;0.20;;
49502;SDS011;35409;48.776;9.204;2024-02-23T03:28:46;4.07;;;0.52;;
49502;SDS011;35409;48.776;9.204;2024-02-23T03:31:13;3.03;;;0.40;;
49502;SDS011;35409;48.776;9.204;2024-02-23T03:33:39;1.63;;;0.20;;
49502;SDS011;35409;48.776;9.204;2024-02-23T03:36:05;2.90;;;0.30;;
49502;SDS011;35409;48.776;9.204;2024-02-23T03:38:31;1.60;;;0.75;;
49502;SDS011;35409;48.776;9.204;2024-02-23T03:40:59;3.90;;;0.40;;
49502;SDS011;35409;48.776;9.204;2024-02-23T03:43:26;6.75;;;0.55;;
49502;SDS011;35409;48.776;9.204;2024-02-23T03:45:52;1.95;;;0.25;;
49502;SDS011;35409;48.776;9.204;2024-02-23T03:48:18;1.45;;;0.28;;
49502;SDS011;35409;48.776;9.204;2024-02-23T03:50:45;1.75;;;0.52;;
49502;SDS011;35409;48.776;9.204;2024-02-23T03:53:11;3.55;;;0.63;;
49502;SDS011;35409;48.776;9.204;2024-02-23T03:55:37;4.38;;;0.45;;
49502;SDS011;35409;48.776;9.204;2024-02-23T03:58:03;1.98;;;0.30;;
49502;SDS011;35409;48.776;9.204;2024-02-23T04:00:29;1.88;;;0.32;;
49502;SDS011;35409;48.776;9.204;2024-02-23T04:02:55;2.97;;;0.30;;
49502;SDS011;35409;48.776;9.204;2024-02-23T04:05:21;5.50;;;0.38;;
49502;SDS011;35409;48.776;9.204;2024-02-23T04:07:47;2.75;;;1.20;;
49502;SDS011;35409;48.776;9.204;2024-02-23T04:10:13;3.63;;;0.57;;
49502;SDS011;35409;48.776;9.204;2024-02-23T04:12:41;3.70;;;0.50;;
49502;SDS011;35409;48.776;9.204;2024-02-23T04:15:09;1.70;;;0.45;;
49502;SDS011;35409;48.776;9.204;2024-02-23T04:17:35;1.67;;;0.40;;
49502;SDS011;35409;48.776;9.204;2024-02-23T04:20:01;2.72;;;0.45;;
49502;SDS011;35409;48.776;9.204;2024-02-23T04:22:30;6.80;;;1.00;;
49502;SDS011;35409;48.776;9.204;2024-02-23T04:24:56;1.67;;;0.35;;
49502;SDS011;35409;48.776;9.204;2024-02-23T04:27:22;2.58;;;0.40;;
49502;SDS011;35409;48.776;9.204;2024-02-23T04:29:48;2.40;;;0.45;;
49502;SDS011;35409;48.776;9.204;2024-02-23T04:32:14;4.00;;;0.68;;
49502;SDS011;35409;48.776;9.204;2024-02-23T04:34:40;4.85;;;0.68;;
49502;SDS011;35409;48.776;9.204;2024-02-23T04:37:06;1.42;;;0.45;;
49502;SDS011;35409;48.776;9.204;2024-02-23T04:39:33;2.65;;;0.55;;
49502;SDS011;35409;48.776;9.204;2024-02-23T04:41:59;4.80;;;0.93;;
49502;SDS011;35409;48.776;9.204;2024-02-23T04:44:25;1.77;;;0.32;;
49502;SDS011;35409;48.776;9.204;2024-02-23T04:46:51;2.72;;;0.57;;
49502;SDS011;35409;48.776;9.204;2024-02-23T04:49:17;2.05;;;0.63;;
49502;SDS011;35409;48.776;9.204;2024-02-23T04:51:43;2.55;;;0.77;;
49502;SDS011;35409;48.776;9.204;2024-02-23T04:54:09;1.80;;;0.40;;
49502;SDS011;35409;48.776;9.204;2024-02-23T04:56:35;3.72;;;0.70;;
49502;SDS011;35409;48.776;9.204;2024-02-23T04:59:01;4.10;;;0.50;;
49502;SDS011;35409;48.776;9.204;2024-02-23T05:01:26;3.33;;;0.47;;
49502;SDS011;35409;48.776;9.204;2024-02-23T05:03:52;5.85;;;0.90;;
49502;SDS011;35409;48.776;9.204;2024-02-23T05:06:17;2.85;;;0.43;;
49502;SDS011;35409;48.776;9.204;2024-02-23T05:08:43;2.70;;;0.68;;
49502;SDS011;35409;48.776;9.204;2024-02-23T05:11:09;4.57;;;0.60;;
49502;SDS011;35409;48.776;9.204;2024-02-23T05:13:34;5.47;;;1.17;;
49502;SDS011;35409;48.776;9.204;2024-02-23T05:16:00;3.10;;;0.80;;
49502;SDS011;35409;48.776;9.204;2024-02-23T05:18:26;1.33;;;0.60;;
49502;SDS011;35409;48.776;9.204;2024-02-23T05:20:51;4.95;;;0.60;;
49502;SDS011;35409;48.776;9.204;2024-02-23T05:23:17;2.88;;;0.73;;
49502;SDS011;35409;48.776;9.204;2024-02-23T05:25:43;4.65;;;0.85;;
49502;SDS011;35409;48.776;9.204;2024-02-23T05:28:08;3.67;;;1.40;;
49502;SDS011;35409;48.776;9.204;2024-02-23T05:30:34;6.18;;;1.35;;
49502;SDS011;35409;48.776;9.204;2024-02-23T05:32:59;5.72;;;1.30;;
49502;SDS011;35409;48.776;9.204;2024-02-23T05:35:28;3.13;;;1.27;;
49502;SDS011;35409;48.776;9.204;2024-02-23T05:37:54;2.70;;;0.68;;
49502;SDS011;35409;48.776;9.204;2024-02-23T05:40:20;2.95;;;0.85;;
49502;SDS011;35409;48.776;9.204;2024-02-23T05:42:46;1.85;;;0.70;;
49502;SDS011;35409;48.776;9.204;2024-02-23T05:45:12;3.05;;;1.20;;
49502;SDS011;35409;48.776;9.204;2024-02-23T05:47:38;4.57;;;0.85;;
49502;SDS011;35409;48.776;9.204;2024-02-23T05:50:04;2.25;;;0.30;;
49502;SDS011;35409;48.776;9.204;2024-02-23T05:52:31;2.95;;;0.60;;
49502;SDS011;35409;48.776;9.204;2024-02-23T05:54:57;4.38;;;0.80;;
49502;SDS011;35409;48.776;9.204;2024-02-23T05:57:25;2.75;;;0.70;;
49502;SDS011;35409;48.776;9.204;2024-02-23T05:59:53;5.35;;;1.50;;
49502;SDS011;35409;48.776;9.204;2024-02-23T06:02:20;2.15;;;1.00;;
49502;SDS011;35409;48.776;9.204;2024-02-23T06:04:47;6.45;;;0.98;;
49502;SDS011;35409;48.776;9.204;2024-02-23T06:07:13;6.40;;;1.52;;
49502;SDS011;35409;48.776;9.204;2024-02-23T06:09:42;3.78;;;1.80;;
49502;SDS011;35409;48.776;9.204;2024-02-23T06:12:08;6.03;;;1.52;;
49502;SDS011;35409;48.776;9.204;2024-02-23T06:14:35;6.40;;;1.50;;
49502;SDS011;35409;48.776;9.204;2024-02-23T06:17:01;6.18;;;0.88;;
49502;SDS011;35409;48.776;9.204;2024-02-23T06:19:28;4.70;;;0.90;;
49502;SDS011;35409;48.776;9.204;2024-02-23T06:21:54;9.35;;;0.88;;
49502;SDS011;35409;48.776;9.204;2024-02-23T06:24:20;3.25;;;0.80;;
49502;SDS011;35409;48.776;9.204;2024-02-23T06:26:47;3.75;;;0.85;;
49502;SDS011;35409;48.776;9.204;2024-02-23T06:29:14;1.33;;;0.55;;
49502;SDS011;35409;48.776;9.204;2024-02-23T06:31:40;7.80;;;0.90;;
49502;SDS011;35409;48.776;9.204;2024-02-23T06:34:06;3.55;;;1.08;;
49502;SDS011;35409;48.776;9.204;2024-02-23T06:36:32;4.45;;;1.05;;
49502;SDS011;35409;48.776;9.204;2024-02-23T06:38:58;2.40;;;0.93;;
49502;SDS011;35409;48.776;9.204;2024-02-23T06:41:24;3.28;;;0.88;;
49502;SDS011;35409;48.776;9.204;2024-02-23T06:43:51;4.65;;;0.88;;
49502;SDS011;35409;48.776;9.204;2024-02-23T06:46:18;1.98;;;0.70;;
49502;SDS011;35409;48.776;9.204;2024-02-23T06:48:47;4.07;;;0.82;;
49502;SDS011;35409;48.776;9.204;2024-02-23T06:51:13;2.92;;;0.57;;
49502;SDS011;35409;48.776;9.204;2024-02-23T06:53:41;5.55;;;1.10;;
49502;SDS011;35409;48.776;9.204;2024-02-23T06:56:07;3.38;;;0.85;;
49502;SDS011;35409;48.776;9.204;2024-02-23T06:58:33;2.50;;;0.77;;
49502;SDS011;35409;48.776;9.204;2024-02-23T07:01:00;3.55;;;1.23;;
49502;SDS011;35409;48.776;9.204;2024-02-23T07:03:27;1.92;;;0.77;;
49502;SDS011;35409;48.776;9.204;2024-02-23T07:05:54;0.93;;;0.50;;
49502;SDS011;35409;48.776;9.204;2024-02-23T07:08:20;6.05;;;0.55;;
49502;SDS011;35409;48.776;9.204;2024-02-23T07:10:46;15.95;;;3.83;;
49502;SDS011;35409;48.776;9.204;2024-02-23T07:13:13;2.80;;;0.98;;
49502;SDS011;35409;48.776;9.204;2024-02-23T07:15:39;5.15;;;0.93;;
49502;SDS011;35409;48.776;9.204;2024-02-23T07:18:05;3.97;;;0.70;;
49502;SDS011;35409;48.776;9.204;2024-02-23T07:20:33;2.88;;;0.85;;
49502;SDS011;35409;48.776;9.204;2024-02-23T07:22:59;2.80;;;0.73;;
49502;SDS011;35409;48.776;9.204;2024-02-23T07:25:25;1.05;;;0.47;;
49502;SDS011;35409;48.776;9.204;2024-02-23T07:27:51;3.03;;;0.80;;
49502;SDS011;35409;48.776;9.204;2024-02-23T07:30:17;2.50;;;0.52;;
49502;SDS011;35409;48.776;9.204;2024-02-23T07:32:44;2.03;;;0.43;;
49502;SDS011;35409;48.776;9.204;2024-02-23T07:35:11;2.03;;;0.80;;
49502;SDS011;35409;48.776;9.204;2024-02-23T07:37:37;3.25;;;0.80;;
49502;SDS011;35409;48.776;9.204;2024-02-23T07:40:03;6.45;;;0.80;;
49502;SDS011;35409;48.776;9.204;2024-02-23T07:42:30;3.30;;;0.80;;
49502;SDS011;35409;48.776;9.204;2024-02-23T07:44:56;3.10;;;0.60;;
49502;SDS011;35409;48.776;9.204;2024-02-23T07:47:23;3.22;;;0.85;;
49502;SDS011;35409;48.776;9.204;2024-02-23T07:49:51;2.03;;;0.70;;
49502;SDS011;35409;48.776;9.204;2024-02-23T07:52:18;2.13;;;1.15;;
49502;SDS011;35409;48.776;9.204;2024-02-23T07:54:44;3.67;;;1.15;;
49502;SDS011;35409;48.776;9.204;2024-02-23T07:57:10;3.55;;;1.10;;
49502;SDS011;35409;48.776;9.204;2024-02-23T07:59:38;4.43;;;1.10;;
49502;SDS011;35409;48.776;9.204;2024-02-23T08:02:04;5.47;;;1.23;;
49502;SDS011;35409;48.776;9.204;2024-02-23T08:04:30;4.85;;;0.73;;
49502;SDS011;35409;48.776;9.204;2024-02-23T08:06:56;5.85;;;0.90;;
49502;SDS011;35409;48.776;9.204;2024-02-23T08:09:23;2.50;;;0.55;;
49502;SDS011;35409;48.776;9.204;2024-02-23T08:11:49;5.85;;;0.98;;
49502;SDS011;35409;48.776;9.204;2024-02-23T08:14:16;1.75;;;0.50;;
49502;SDS011;35409;48.776;9.204;2024-02-23T08:16:42;2.38;;;0.68;;
49502;SDS011;35409;48.776;9.204;2024-02-23T08:19:08;5.10;;;0.77;;
49502;SDS011;35409;48.776;9.204;2024-02-23T08:21:34;6.55;;;1.33;;
49502;SDS011;35409;48.776;9.204;2024-02-23T08:24:00;2.58;;;0.52;;
49502;SDS011;35409;48.776;9.204;2024-02-23T08:26:26;6.43;;;0.90;;
49502;SDS011;35409;48.776;9.204;2024-02-23T08:28:52;4.88;;;1.00;;
49502;SDS011;35409;48.776;9.204;2024-02-23T08:31:17;2.75;;;0.68;;
49502;SDS011;35409;48.776;9.204;2024-02-23T08:33:44;2.28;;;0.77;;
49502;SDS011;35409;48.776;9.204;2024-02-23T08:36:10;5.03;;;0.70;;
49502;SDS011;35409;48.776;9.204;2024-02-23T08:38:36;3.10;;;0.95;;
49502;SDS011;35409;48.776;9.204;2024-02-23T08:41:02;2.95;;;0.65;;
49502;SDS011;35409;48.776;9.204;2024-02-23T08:43:28;5.15;;;0.60;;
49502;SDS011;35409;48.776;9.204;2024-02-23T08:45:54;4.70;;;0.93;;
49502;SDS011;35409;48.776;9.204;2024-02-23T08:48:20;2.40;;;0.80;;
49502;SDS011;35409;48.776;9.204;2024-02-23T08:50:46;3.03;;;0.50;;
49502;SDS011;35409;48.776;9.204;2024-02-23T08:53:12;3.65;;;0.65;;
49502;SDS011;35409;48.776;9.204;2024-02-23T08:55:38;4.22;;;0.70;;
49502;SDS011;35409;48.776;9.204;2024-02-23T08:58:04;4.10;;;0.75;;
49502;SDS011;35409;48.776;9.204;2024-02-23T09:00:34;1.38;;;0.55;;
49502;SDS011;35409;48.776;9.204;2024-02-23T09:03:02;2.67;;;0.90;;
49502;SDS011;35409;48.776;9.204;2024-02-23T09:05:28;3.78;;;0.60;;
49502;SDS011;35409;48.776;9.204;2024-02-23T09:07:54;3.38;;;0.70;;
49502;SDS011;35409;48.776;9.204;2024-02-23T09:10:20;3.20;;;0.70;;
49502;SDS011;35409;48.776;9.204;2024-02-23T09:12:46;6.13;;;1.10;;
49502;SDS011;35409;48.776;9.204;2024-02-23T09:15:12;2.63;;;0.70;;
49502;SDS011;35409;48.776;9.204;2024-02-23T09:17:41;3.38;;;0.70;;
49502;SDS011;35409;48.776;9.204;2024-02-23T09:20:08;5.28;;;0.80;;
49502;SDS011;35409;48.776;9.204;2024-02-23T09:22:34;5.93;;;1.10;;
49502;SDS011;35409;48.776;9.204;2024-02-23T09:25:01;2.42;;;0.70;;
49502;SDS011;35409;48.776;9.204;2024-02-23T09:27:27;2.90;;;0.80;;
49502;SDS011;35409;48.776;9.204;2024-02-23T09:29:53;5.40;;;0.75;;
49502;SDS011;35409;48.776;9.204;2024-02-23T09:32:19;5.70;;;0.80;;
49502;SDS011;35409;48.776;9.204;2024-02-23T09:34:45;3.80;;;1.00;;
49502;SDS011;35409;48.776;9.204;2024-02-23T09:37:11;3.83;;;0.77;;
49502;SDS011;35409;48.776;9.204;2024-02-23T09:39:37;4.72;;;0.95;;
49502;SDS011;35409;48.776;9.204;2024-02-23T09:42:03;8.80;;;0.80;;
49502;SDS011;35409;48.776;9.204;2024-02-23T09:44:33;4.07;;;0.88;;
49502;SDS011;35409;48.776;9.204;2024-02-23T09:47:00;5.32;;;0.75;;
49502;SDS011;35409;48.776;9.204;2024-02-23T09:49:26;4.22;;;1.00;;
49502;SDS011;35409;48.776;9.204;2024-02-23T09:51:52;2.75;;;0.50;;
49502;SDS011;35409;48.776;9.204;2024-02-23T09:54:20;2.35;;;0.70;;
49502;SDS011;35409;48.776;9.204;2024-02-23T09:56:46;2.33;;;0.60;;
49502;SDS011;35409;48.776;9.204;2024-02-23T09:59:12;2.92;;;0.70;;
49502;SDS011;35409;48.776;9.204;2024-02-23T10:01:39;4.05;;;0.68;;
49502;SDS011;35409;48.776;9.204;2024-02-23T10:04:05;2.92;;;0.52;;
49502;SDS011;35409;48.776;9.204;2024-02-23T10:06:32;2.80;;;0.60;;
49502;SDS011;35409;48.776;9.204;2024-02-23T10:08:58;4.03;;;0.57;;
49502;SDS011;35409;48.776;9.204;2024-02-23T10:11:24;3.80;;;0.90;;
49502;SDS011;35409;48.776;9.204;2024-02-23T10:13:51;3.97;;;0.63;;
49502;SDS011;35409;48.776;9.204;2024-02-23T10:16:19;5.15;;;0.90;;
49502;SDS011;35409;48.776;9.204;2024-02-23T10:18:46;5.45;;;0.75;;
49502;SDS011;35409;48.776;9.204;2024-02-23T10:21:14;6.13;;;0.70;;
49502;SDS011;35409;48.776;9.204;2024-02-23T10:23:40;5.28;;;1.00;;
49502;SDS011;35409;48.776;9.204;2024-02-23T10:26:06;8.88;;;0.88;;
49502;SDS011;35409;48.776;9.204;2024-02-23T10:28:32;7.35;;;1.10;;
49502;SDS011;35409;48.776;9.204;2024-02-23T10:30:59;4.13;;;0.73;;
49502;SDS011;35409;48.776;9.204;2024-02-23T10:33:26;4.22;;;0.88;;
49502;SDS011;35409;48.776;9.204;2024-02-23T10:35:53;4.63;;;0.90;;
49502;SDS011;35409;48.776;9.204;2024-02-23T10:38:24;3.10;;;0.90;;
49502;SDS011;35409;48.776;9.204;2024-02-23T10:40:52;3.10;;;0.60;;
49502;SDS011;35409;48.776;9.204;2024-02-23T10:43:21;4.90;;;0.90;;
49502;SDS011;35409;48.776;9.204;2024-02-23T10:46:07;4.00;;;1.00;;
49502;SDS011;35409;48.776;9.204;2024-02-23T10:48:38;6.63;;;0.93;;
49502;SDS011;35409;48.776;9.204;2024-02-23T10:53:35;5.25;;;0.98;;
49502;SDS011;35409;48.776;9.204;2024-02-23T10:56:01;4.38;;;0.70;;
49502;SDS011;35409;48.776;9.204;2024-02-23T10:58:30;6.07;;;1.05;;
49502;SDS011;35409;48.776;9.204;2024-02-23T11:00:59;2.03;;;0.88;;
49502;SDS011;35409;48.776;9.204;2024-02-23T11:03:28;4.03;;;0.95;;
49502;SDS011;35409;48.776;9.204;2024-02-23T11:05:55;2.17;;;0.60;;
49502;SDS011;35409;48.776;9.204;2024-02-23T11:08:20;4.32;;;0.70;;
49502;SDS011;35409;48.776;9.204;2024-02-23T11:10:49;6.00;;;1.00;;
49502;SDS011;35409;48.776;9.204;2024-02-23T11:13:17;3.88;;;0.77;;
49502;SDS011;35409;48.776;9.204;2024-02-23T11:15:42;6.50;;;0.90;;
49502;SDS011;35409;48.776;9.204;2024-02-23T11:21:09;6.03;;;1.02;;
49502;SDS011;35409;48.776;9.204;2024-02-23T11:23:40;12.02;;;1.13;;
49502;SDS011;35409;48.776;9.204;2024-02-23T11:26:10;5.07;;;0.90;;
49502;SDS011;35409;48.776;9.204;2024-02-23T11:31:15;6.18;;;1.15;;
49502;SDS011;35409;48.776;9.204;2024-02-23T11:33:49;7.43;;;1.30;;
49502;SDS011;35409;48.776;9.204;2024-02-23T11:36:29;7.28;;;1.58;;
49502;SDS011;35409;48.776;9.204;2024-02-23T11:38:57;4.10;;;1.02;;
49502;SDS011;35409;48.776;9.204;2024-02-23T11:41:25;8.30;;;1.15;;
49502;SDS011;35409;48.776;9.204;2024-02-23T11:43:52;5.18;;;1.05;;
49502;SDS011;35409;48.776;9.204;2024-02-23T11:46:19;5.68;;;1.75;;
49502;SDS011;35409;48.776;9.204;2024-02-23T11:48:45;4.75;;;1.10;;
49502;SDS011;35409;48.776;9.204;2024-02-23T11:51:18;5.63;;;1.30;;
49502;SDS011;35409;48.776;9.204;2024-02-23T11:53:46;5.18;;;1.30;;
49502;SDS011;35409;48.776;9.204;2024-02-23T11:56:12;6.38;;;0.98;;
49502;SDS011;35409;48.776;9.204;2024-02-23T11:58:39;6.30;;;1.50;;
49502;SDS011;35409;48.776;9.204;2024-02-23T12:01:05;4.68;;;1.15;;
49502;SDS011;35409;48.776;9.204;2024-02-23T12:03:32;4.40;;;1.08;;
49502;SDS011;35409;48.776;9.204;2024-02-23T12:05:58;3.15;;;1.08;;
49502;SDS011;35409;48.776;9.204;2024-02-23T12:08:28;5.43;;;1.00;;
49502;SDS011;35409;48.776;9.204;2024-02-23T12:10:56;4.55;;;1.08;;
49502;SDS011;35409;48.776;9.204;2024-02-23T12:13:25;5.32;;;1.00;;
49502;SDS011;35409;48.776;9.204;2024-02-23T12:15:52;3.47;;;0.95;;
49502;SDS011;35409;48.776;9.204;2024-02-23T12:18:18;4.00;;;0.90;;
49502;SDS011;35409;48.776;9.204;2024-02-23T12:20:58;6.32;;;1.05;;
49502;SDS011;35409;48.776;9.204;2024-02-23T12:23:25;4.18;;;1.10;;
49502;SDS011;35409;48.776;9.204;2024-02-23T12:25:54;7.60;;;1.17;;
49502;SDS011;35409;48.776;9.204;2024-02-23T12:28:21;3.35;;;0.85;;
49502;SDS011;35409;48.776;9.204;2024-02-23T12:30:58;5.90;;;1.25;;
49502;SDS011;35409;48.776;9.204;2024-02-23T12:33:33;7.63;;;1.70;;
49502;SDS011;35409;48.776;9.204;2024-02-23T12:36:01;7.88;;;1.38;;
49502;SDS011;35409;48.776;9.204;2024-02-23T12:38:28;15.07;;;2.53;;
49502;SDS011;35409;48.776;9.204;2024-02-23T12:40:54;7.35;;;1.58;;
49502;SDS011;35409;48.776;9.204;2024-02-23T12:43:20;5.50;;;1.60;;
49502;SDS011;35409;48.776;9.204;2024-02-23T12:45:52;9.15;;;1.52;;
49502;SDS011;35409;48.776;9.204;2024-02-23T12:48:21;7.37;;;1.17;;
49502;SDS011;35409;48.776;9.204;2024-02-23T12:50:47;8.65;;;1.20;;
49502;SDS011;35409;48.776;9.204;2024-02-23T12:56:01;4.47;;;1.10;;
49502;SDS011;35409;48.776;9.204;2024-02-23T12:58:27;6.20;;;1.40;;
49502;SDS011;35409;48.776;9.204;2024-02-23T13:00:53;8.02;;;1.67;;
49502;SDS011;35409;48.776;9.204;2024-02-23T13:03:19;5.03;;;1.00;;
49502;SDS011;35409;48.776;9.204;2024-02-23T13:05:45;4.57;;;0.98;;
49502;SDS011;35409;48.776;9.204;2024-02-23T13:08:11;4.47;;;1.13;;
49502;SDS011;35409;48.776;9.204;2024-02-23T13:10:36;9.65;;;2.78;;
49502;SDS011;35409;48.776;9.204;2024-02-23T13:13:02;6.28;;;1.50;;
49502;SDS011;35409;48.776;9.204;2024-02-23T13:15:28;5.75;;;0.90;;
49502;SDS011;35409;48.776;9.204;2024-02-23T13:17:53;7.18;;;1.38;;
49502;SDS011;35409;48.776;9.204;2024-02-23T13:20:19;5.65;;;1.20;;
49502;SDS011;35409;48.776;9.204;2024-02-23T13:22:45;3.25;;;0.88;;
49502;SDS011;35409;48.776;9.204;2024-02-23T13:25:11;5.28;;;1.02;;
49502;SDS011;35409;48.776;9.204;2024-02-23T13:27:36;3.42;;;1.10;;
49502;SDS011;35409;48.776;9.204;2024-02-23T13:30:02;6.22;;;1.67;;
49502;SDS011;35409;48.776;9.204;2024-02-23T13:32:28;7.97;;;1.25;;
49502;SDS011;35409;48.776;9.204;2024-02-23T13:34:54;5.55;;;1.27;;
49502;SDS011;35409;48.776;9.204;2024-02-23T13:37:19;4.20;;;1.30;;
49502;SDS011;35409;48.776;9.204;2024-02-23T13:39:45;5.00;;;1.30;;
49502;SDS011;35409;48.776;9.204;2024-02-23T13:42:10;3.78;;;1.00;;
49502;SDS011;35409;48.776;9.204;2024-02-23T13:44:36;4.90;;;1.48;;
49502;SDS011;35409;48.776;9.204;2024-02-23T13:47:02;6.05;;;1.50;;
49502;SDS011;35409;48.776;9.204;2024-02-23T13:49:28;4.95;;;1.02;;
49502;SDS011;35409;48.776;9.204;2024-02-23T13:51:53;5.55;;;1.58;;
49502;SDS011;35409;48.776;9.204;2024-02-23T13:54:20;6.80;;;1.23;;
49502;SDS011;35409;48.776;9.204;2024-02-23T13:56:45;10.07;;;1.33;;
49502;SDS011;35409;48.776;9.204;2024-02-23T13:59:12;5.75;;;1.35;;
49502;SDS011;35409;48.776;9.204;2024-02-23T14:01:38;8.27;;;1.25;;
49502;SDS011;35409;48.776;9.204;2024-02-23T14:04:06;7.57;;;1.75;;
49502;SDS011;35409;48.776;9.204;2024-02-23T14:06:35;5.60;;;1.23;;
49502;SDS011;35409;48.776;9.204;2024-02-23T14:09:00;8.73;;;1.55;;
49502;SDS011;35409;48.776;9.204;2024-02-23T14:11:28;14.32;;;1.30;;
49502;SDS011;35409;48.776;9.204;2024-02-23T14:13:54;6.40;;;1.13;;
49502;SDS011;35409;48.776;9.204;2024-02-23T14:16:21;8.00;;;1.30;;
49502;SDS011;35409;48.776;9.204;2024-02-23T14:18:49;9.45;;;1.75;;
49502;SDS011;35409;48.776;9.204;2024-02-23T14:21:15;14.10;;;1.80;;
49502;SDS011;35409;48.776;9.204;2024-02-23T14:23:41;12.05;;;1.80;;
49502;SDS011;35409;48.776;9.204;2024-02-23T14:26:07;8.07;;;1.33;;
49502;SDS011;35409;48.776;9.204;2024-02-23T14:28:32;5.18;;;1.30;;
49502;SDS011;35409;48.776;9.204;2024-02-23T14:30:58;10.10;;;1.60;;
49502;SDS011;35409;48.776;9.204;2024-02-23T14:33:24;6.55;;;1.55;;
49502;SDS011;35409;48.776;9.204;2024-02-23T14:35:49;7.35;;;1.50;;
49502;SDS011;35409;48.776;9.204;2024-02-23T14:38:15;3.60;;;0.93;;
49502;SDS011;35409;48.776;9.204;2024-02-23T14:40:41;5.80;;;1.40;;
49502;SDS011;35409;48.776;9.204;2024-02-23T14:43:07;5.57;;;1.30;;
49502;SDS011;35409;48.776;9.204;2024-02-23T14:45:34;8.82;;;1.60;;
49502;SDS011;35409;48.776;9.204;2024-02-23T14:48:00;6.63;;;1.48;;
49502;SDS011;35409;48.776;9.204;2024-02-23T14:50:26;6.07;;;1.58;;
49502;SDS011;35409;48.776;9.204;2024-02-23T14:52:51;4.53;;;1.58;;
49502;SDS011;35409;48.776;9.204;2024-02-23T14:55:17;9.40;;;1.40;;